createdAt,value
2017-04-12T00:00:37.363Z,14.15
2017-04-12T00:01:36.318Z,10.18
2017-04-12T00:02:36.005Z,9.08
2017-04-12T00:03:34.929Z,10.30
2017-04-12T00:04:33.851Z,12.30
2017-04-12T00:05:32.795Z,14.37
2017-04-12T00:06:31.734Z,10.12
2017-04-12T00:07:30.679Z,11.47
2017-04-12T00:08:29.655Z,12.38
2017-04-12T00:09:28.577Z,11.35
2017-04-12T00:10:27.520Z,12.83
2017-04-12T00:11:26.503Z,10.35
2017-04-12T00:12:25.428Z,11.92
2017-04-12T00:13:24.339Z,10.18
2017-04-12T00:14:23.317Z,11.37
2017-04-12T00:15:22.240Z,12.27
2017-04-12T00:16:21.135Z,13.10
2017-04-12T00:17:20.060Z,14.32
2017-04-12T00:18:19.042Z,12.83
2017-04-12T00:19:17.960Z,12.08
2017-04-12T00:20:16.955Z,12.30
2017-04-12T00:21:15.885Z,12.25
2017-04-12T00:22:14.992Z,12.18
2017-04-12T00:23:14.064Z,9.90
2017-04-12T00:24:12.981Z,10.15
2017-04-12T00:25:11.903Z,12.40
2017-04-12T00:26:11.576Z,12.03
2017-04-12T00:27:10.486Z,9.25
2017-04-12T00:28:09.419Z,12.52
2017-04-12T00:29:08.339Z,10.08
2017-04-12T00:30:07.301Z,9.50
2017-04-12T00:31:06.213Z,11.72
2017-04-12T00:32:05.894Z,10.98
2017-04-12T00:33:04.801Z,12.27
2017-04-12T00:34:03.719Z,12.13
2017-04-12T00:35:02.627Z,12.10
2017-04-12T00:36:01.536Z,11.78
2017-04-12T00:37:00.451Z,10.07
2017-04-12T00:37:59.397Z,12.15
2017-04-12T00:38:58.327Z,14.95
2017-04-12T00:39:57.239Z,11.15
2017-04-12T00:40:56.199Z,12.20
2017-04-12T00:41:55.094Z,11.80
2017-04-12T00:42:54.001Z,13.00
2017-04-12T00:43:53.668Z,14.83
2017-04-12T00:44:52.575Z,10.62
2017-04-12T00:45:52.240Z,11.88
2017-04-12T00:46:51.131Z,9.38
2017-04-12T00:47:50.105Z,13.88
2017-04-12T00:48:49.021Z,11.82
2017-04-12T00:49:48.724Z,10.00
2017-04-12T00:50:48.378Z,11.87
2017-04-12T00:51:47.336Z,13.05
2017-04-12T00:52:46.256Z,13.45
2017-04-12T00:53:45.180Z,12.12
2017-04-12T00:54:44.103Z,12.72
2017-04-12T00:55:43.027Z,12.28
2017-04-12T00:56:42.674Z,11.70
2017-04-12T00:57:41.616Z,11.42
2017-04-12T00:58:40.507Z,13.38
2017-04-12T00:59:39.412Z,12.40
2017-04-12T01:00:38.438Z,12.22
2017-04-12T01:01:38.099Z,12.63
2017-04-12T01:02:37.048Z,15.05
2017-04-12T01:03:36.169Z,15.30
2017-04-12T01:04:35.160Z,12.58
2017-04-12T01:05:34.063Z,13.02
2017-04-12T01:06:32.962Z,12.37
2017-04-12T01:07:32.785Z,12.63
2017-04-12T01:08:31.691Z,14.32
2017-04-12T01:09:30.624Z,16.42
2017-04-12T01:10:30.314Z,14.38
2017-04-12T01:11:29.266Z,14.32
2017-04-12T01:12:28.205Z,15.82
2017-04-12T01:13:27.152Z,14.02
2017-04-12T01:14:26.051Z,15.78
2017-04-12T01:15:25.687Z,16.17
2017-04-12T01:16:24.576Z,13.68
2017-04-12T01:17:23.506Z,12.92
2017-04-12T01:18:23.152Z,15.48
2017-04-12T01:19:22.083Z,14.88
2017-04-12T01:20:21.735Z,17.75
2017-04-12T01:21:20.662Z,16.37
2017-04-12T01:22:20.316Z,16.33
2017-04-12T01:23:19.328Z,16.25
2017-04-12T01:24:18.260Z,15.60
2017-04-12T01:25:18.190Z,14.22
2017-04-12T01:26:17.147Z,15.90
2017-04-12T01:27:16.048Z,15.17
2017-04-12T01:28:14.967Z,15.42
2017-04-12T01:29:14.620Z,16.02
2017-04-12T01:30:13.531Z,17.05
2017-04-12T01:31:14.253Z,14.55
2017-04-12T01:32:13.161Z,16.32
2017-04-12T01:33:14.459Z,16.07
2017-04-12T01:34:13.411Z,20.17
2017-04-12T01:35:12.332Z,17.72
2017-04-12T01:36:11.274Z,15.88
2017-04-12T01:37:10.187Z,15.48
2017-04-12T01:38:09.125Z,16.60
2017-04-12T01:39:08.060Z,17.22
2017-04-12T01:40:06.956Z,17.03
2017-04-12T01:41:05.876Z,17.98
2017-04-12T01:42:04.815Z,16.35
2017-04-12T01:43:03.730Z,20.75
2017-04-12T01:44:02.652Z,20.78
2017-04-12T01:45:01.544Z,19.02
2017-04-12T01:46:00.472Z,16.72
2017-04-12T01:46:59.407Z,20.02
2017-04-12T01:47:58.319Z,19.35
2017-04-12T01:48:57.239Z,22.38
2017-04-12T01:49:56.176Z,20.72
2017-04-12T01:50:55.098Z,16.17
2017-04-12T01:51:54.024Z,20.37
2017-04-12T01:52:52.940Z,18.62
2017-04-12T01:53:51.872Z,20.02
2017-04-12T01:54:50.780Z,17.30
2017-04-12T01:55:50.427Z,20.48
2017-04-12T01:56:49.316Z,21.70
2017-04-12T01:57:48.216Z,20.72
2017-04-12T01:58:47.136Z,20.60
2017-04-12T01:59:46.083Z,20.77
2017-04-12T02:00:45.033Z,22.17
2017-04-12T02:01:43.935Z,19.95
2017-04-12T02:02:42.856Z,20.75
2017-04-12T02:03:41.775Z,22.47
2017-04-12T02:04:40.717Z,19.20
2017-04-12T02:05:39.863Z,19.08
2017-04-12T02:06:38.799Z,20.50
2017-04-12T02:07:37.735Z,22.92
2017-04-12T02:08:36.653Z,21.18
2017-04-12T02:09:35.565Z,20.17
2017-04-12T02:10:34.490Z,20.67
2017-04-12T02:11:33.437Z,20.38
2017-04-12T02:12:32.408Z,19.75
2017-04-12T02:13:31.332Z,20.12
2017-04-12T02:14:30.256Z,19.42
2017-04-12T02:15:29.180Z,20.17
2017-04-12T02:16:28.114Z,21.18
2017-04-12T02:17:27.036Z,20.90
2017-04-12T02:18:26.008Z,20.00
2017-04-12T02:19:24.932Z,21.50
2017-04-12T02:20:23.844Z,21.23
2017-04-12T02:21:22.756Z,21.22
2017-04-12T02:22:21.690Z,21.92
2017-04-12T02:23:20.603Z,19.82
2017-04-12T02:24:19.524Z,20.70
2017-04-12T02:25:19.181Z,20.88
2017-04-12T02:26:18.107Z,24.90
2017-04-12T02:27:17.261Z,23.20
2017-04-12T02:28:16.183Z,20.45
2017-04-12T02:29:15.112Z,22.04
2017-04-12T02:30:14.020Z,21.72
2017-04-12T02:31:12.999Z,21.32
2017-04-12T02:32:11.900Z,21.92
2017-04-12T02:33:11.576Z,22.32
2017-04-12T02:34:11.240Z,22.25
2017-04-12T02:35:10.163Z,23.57
2017-04-12T02:36:09.091Z,19.80
2017-04-12T02:37:08.019Z,21.45
2017-04-12T02:38:06.950Z,21.00
2017-04-12T02:39:06.212Z,21.25
2017-04-12T02:40:05.864Z,24.30
2017-04-12T02:41:04.820Z,24.45
2017-04-12T02:42:03.751Z,20.65
2017-04-12T02:43:02.651Z,21.40
2017-04-12T02:44:01.631Z,26.55
2017-04-12T02:45:00.568Z,21.42
2017-04-12T02:45:59.492Z,24.60
2017-04-12T02:46:58.380Z,24.06
2017-04-12T02:47:57.461Z,23.02
2017-04-12T02:48:56.384Z,22.60
2017-04-12T02:49:55.338Z,24.30
2017-04-12T02:50:54.265Z,21.27
2017-04-12T02:51:53.255Z,21.58
2017-04-12T02:52:52.156Z,24.82
2017-04-12T02:53:51.060Z,23.48
2017-04-12T02:54:49.957Z,21.00
2017-04-12T02:55:48.892Z,21.00
2017-04-12T02:56:47.795Z,24.02
2017-04-12T02:57:46.721Z,21.75
2017-04-12T02:58:45.652Z,24.68
2017-04-12T02:59:44.561Z,23.63
2017-04-12T03:00:43.457Z,22.47
2017-04-12T03:01:42.379Z,23.55
2017-04-12T03:02:41.284Z,22.18
2017-04-12T03:03:40.943Z,21.95
2017-04-12T03:04:39.845Z,23.10
2017-04-12T03:05:38.772Z,26.20
2017-04-12T03:06:37.722Z,24.50
2017-04-12T03:07:37.360Z,23.85
2017-04-12T03:08:36.311Z,22.95
2017-04-12T03:09:35.240Z,22.03
2017-04-12T03:10:34.179Z,24.38
2017-04-12T03:11:33.852Z,23.20
2017-04-12T03:12:32.811Z,26.40
2017-04-12T03:13:31.711Z,23.00
2017-04-12T03:14:30.624Z,27.54
2017-04-12T03:15:29.528Z,24.88
2017-04-12T03:16:28.448Z,22.98
2017-04-12T03:17:27.372Z,23.85
2017-04-12T03:18:26.263Z,23.93
2017-04-12T03:19:25.196Z,24.62
2017-04-12T03:20:24.148Z,28.85
2017-04-12T03:21:23.068Z,26.73
2017-04-12T03:22:22.757Z,24.62
2017-04-12T03:23:21.918Z,27.58
2017-04-12T03:24:20.831Z,27.02
2017-04-12T03:25:19.715Z,27.77
2017-04-12T03:26:19.360Z,26.03
2017-04-12T03:27:18.260Z,25.47
2017-04-12T03:28:17.207Z,24.98
2017-04-12T03:29:16.131Z,24.53
2017-04-12T03:30:15.068Z,25.47
2017-04-12T03:31:13.993Z,27.77
2017-04-12T03:32:12.894Z,25.37
2017-04-12T03:33:11.811Z,26.80
2017-04-12T03:34:10.736Z,26.60
2017-04-12T03:35:09.712Z,27.90
2017-04-12T03:36:08.648Z,26.87
2017-04-12T03:37:07.566Z,27.62
2017-04-12T03:38:06.504Z,25.83
2017-04-12T03:39:05.705Z,26.50
2017-04-12T03:40:04.606Z,29.87
2017-04-12T03:41:03.550Z,32.30
2017-04-12T03:42:02.476Z,30.40
2017-04-12T03:43:01.425Z,25.90
2017-04-12T03:44:00.351Z,26.90
2017-04-12T03:44:59.256Z,26.05
2017-04-12T03:45:58.165Z,27.78
2017-04-12T03:46:57.068Z,25.98
2017-04-12T03:47:55.980Z,28.87
2017-04-12T03:48:54.883Z,25.67
2017-04-12T03:49:54.571Z,27.15
2017-04-12T03:50:53.489Z,27.07
2017-04-12T03:51:52.424Z,31.07
2017-04-12T03:52:51.329Z,29.95
2017-04-12T03:53:50.968Z,26.00
2017-04-12T03:54:49.892Z,28.13
2017-04-12T03:55:48.863Z,30.18
2017-04-12T03:56:47.784Z,30.07
2017-04-12T03:57:47.460Z,26.78
2017-04-12T03:58:46.375Z,27.20
2017-04-12T03:59:45.271Z,27.12
2017-04-12T04:00:44.351Z,29.52
2017-04-12T04:01:43.291Z,26.88
2017-04-12T04:02:42.205Z,27.02
2017-04-12T04:03:41.114Z,32.22
2017-04-12T04:04:40.044Z,29.20
2017-04-12T04:05:39.200Z,31.72
2017-04-12T04:06:38.172Z,28.37
2017-04-12T04:07:37.072Z,28.28
2017-04-12T04:08:35.994Z,29.78
2017-04-12T04:09:34.902Z,32.35
2017-04-12T04:10:33.851Z,28.53
2017-04-12T04:11:32.802Z,31.88
2017-04-12T04:12:31.762Z,29.13
2017-04-12T04:13:34.667Z,26.72
2017-04-12T04:14:33.571Z,30.25
2017-04-12T04:15:32.469Z,30.12
2017-04-12T04:16:31.384Z,26.27
2017-04-12T04:17:30.308Z,27.47
2017-04-12T04:18:35.122Z,27.20
2017-04-12T04:19:34.852Z,29.50
2017-04-12T04:20:33.767Z,28.12
2017-04-12T04:21:32.698Z,31.52
2017-04-12T04:22:31.644Z,28.78
2017-04-12T04:23:30.913Z,29.42
2017-04-12T04:24:29.833Z,28.40
2017-04-12T04:25:29.500Z,27.60
2017-04-12T04:26:28.399Z,26.65
2017-04-12T04:27:27.311Z,31.88
2017-04-12T04:28:26.263Z,32.22
2017-04-12T04:29:25.204Z,30.27
2017-04-12T04:30:24.135Z,30.93
2017-04-12T04:31:23.820Z,31.38
2017-04-12T04:32:22.753Z,29.73
2017-04-12T04:33:21.701Z,30.85
2017-04-12T04:34:21.377Z,30.52
2017-04-12T04:35:20.319Z,28.42
2017-04-12T04:36:19.330Z,30.22
2017-04-12T04:37:18.239Z,27.72
2017-04-12T04:38:17.911Z,33.30
2017-04-12T04:39:16.870Z,29.15
2017-04-12T04:40:15.815Z,32.57
2017-04-12T04:41:14.754Z,28.93
2017-04-12T04:42:13.705Z,26.57
2017-04-12T04:43:12.627Z,30.00
2017-04-12T04:44:11.580Z,27.65
2017-04-12T04:45:10.495Z,29.18
2017-04-12T04:46:09.432Z,30.75
2017-04-12T04:47:08.382Z,29.65
2017-04-12T04:48:08.087Z,30.37
2017-04-12T04:49:07.024Z,29.22
2017-04-12T04:50:05.952Z,29.02
2017-04-12T04:51:04.894Z,32.35
2017-04-12T04:52:03.864Z,27.50
2017-04-12T04:53:02.799Z,34.40
2017-04-12T04:54:01.711Z,29.35
2017-04-12T04:55:00.650Z,30.37
2017-04-12T04:56:00.392Z,31.35
2017-04-12T04:56:59.315Z,28.35
2017-04-12T04:57:58.983Z,35.83
2017-04-12T04:58:57.892Z,27.25
2017-04-12T04:59:56.859Z,29.72
2017-04-12T05:00:55.956Z,27.38
2017-04-12T05:01:54.888Z,31.10
2017-04-12T05:02:53.816Z,32.60
2017-04-12T05:03:53.176Z,27.63
2017-04-12T05:04:52.103Z,29.75
2017-04-12T05:05:51.808Z,29.37
2017-04-12T05:06:50.725Z,29.82
2017-04-12T05:07:49.652Z,30.72
2017-04-12T05:08:48.576Z,31.27
2017-04-12T05:09:47.500Z,28.95
2017-04-12T05:10:46.423Z,32.20
2017-04-12T05:11:45.349Z,28.02
2017-04-12T05:12:44.252Z,28.45
2017-04-12T05:13:43.189Z,29.83
2017-04-12T05:14:42.141Z,32.28
2017-04-12T05:15:41.848Z,30.27
2017-04-12T05:16:40.804Z,32.55
2017-04-12T05:17:39.913Z,29.95
2017-04-12T05:18:38.869Z,33.75
2017-04-12T05:19:37.837Z,26.37
2017-04-12T05:20:36.759Z,30.32
2017-04-12T05:21:35.708Z,29.08
2017-04-12T05:22:35.509Z,28.57
2017-04-12T05:23:34.423Z,28.98
2017-04-12T05:24:33.357Z,29.97
2017-04-12T05:25:32.308Z,28.70
2017-04-12T05:26:31.268Z,31.12
2017-04-12T05:27:30.320Z,33.00
2017-04-12T05:28:29.255Z,29.47
2017-04-12T05:29:28.184Z,32.00
2017-04-12T05:30:27.108Z,30.48
2017-04-12T05:31:26.016Z,29.80
2017-04-12T05:32:25.021Z,33.08
2017-04-12T05:33:24.723Z,31.08
2017-04-12T05:34:23.707Z,29.82
2017-04-12T05:35:22.725Z,32.65
2017-04-12T05:36:20.884Z,30.13
2017-04-12T05:37:19.862Z,30.48
2017-04-12T05:38:19.512Z,29.13
2017-04-12T05:39:18.432Z,30.52
2017-04-12T05:40:18.179Z,28.85
2017-04-12T05:41:17.203Z,29.45
2017-04-12T05:42:16.146Z,28.78
2017-04-12T05:43:15.081Z,32.37
2017-04-12T05:44:14.046Z,30.50
2017-04-12T05:45:13.379Z,27.82
2017-04-12T05:46:12.345Z,31.42
2017-04-12T05:47:12.017Z,30.85
2017-04-12T05:48:10.980Z,31.62
2017-04-12T05:49:09.924Z,33.60
2017-04-12T05:50:08.868Z,29.08
2017-04-12T05:51:07.832Z,29.15
2017-04-12T05:52:06.723Z,31.47
2017-04-12T05:53:05.644Z,29.83
2017-04-12T05:54:04.565Z,33.27
2017-04-12T05:55:03.513Z,32.35
2017-04-12T05:56:02.425Z,27.83
2017-04-12T05:57:01.344Z,27.98
2017-04-12T05:58:00.292Z,31.50
2017-04-12T05:58:59.217Z,33.20
2017-04-12T05:59:58.873Z,30.87
2017-04-12T06:00:57.853Z,32.18
2017-04-12T06:01:56.840Z,31.63
2017-04-12T06:02:55.776Z,34.18
2017-04-12T06:03:54.687Z,31.07
2017-04-12T06:04:53.617Z,29.60
2017-04-12T06:05:53.314Z,32.63
2017-04-12T06:06:52.271Z,27.70
2017-04-12T06:07:51.182Z,35.33
2017-04-12T06:08:50.225Z,31.98
2017-04-12T06:09:49.159Z,28.77
2017-04-12T06:10:48.196Z,28.95
2017-04-12T06:11:47.176Z,30.00
2017-04-12T06:12:46.100Z,29.15
2017-04-12T06:13:45.783Z,29.80
2017-04-12T06:14:44.728Z,29.08
2017-04-12T06:15:43.649Z,34.98
2017-04-12T06:16:42.607Z,30.53
2017-04-12T06:17:41.528Z,28.97
2017-04-12T06:18:40.492Z,30.12
2017-04-12T06:19:40.163Z,29.82
2017-04-12T06:20:39.140Z,30.30
2017-04-12T06:21:38.125Z,31.52
2017-04-12T06:22:37.049Z,28.50
2017-04-12T06:23:35.969Z,31.22
2017-04-12T06:24:34.873Z,31.13
2017-04-12T06:25:33.894Z,30.82
2017-04-12T06:26:32.828Z,32.68
2017-04-12T06:27:31.855Z,32.50
2017-04-12T06:28:30.819Z,32.63
2017-04-12T06:29:30.544Z,31.07
2017-04-12T06:30:29.513Z,30.78
2017-04-12T06:31:29.241Z,32.68
2017-04-12T06:32:29.171Z,35.73
2017-04-12T06:33:28.097Z,30.70
2017-04-12T06:34:27.063Z,32.70
2017-04-12T06:35:26.035Z,35.93
2017-04-12T06:36:24.928Z,34.47
2017-04-12T06:37:23.948Z,34.72
2017-04-12T06:38:22.973Z,31.57
2017-04-12T06:39:21.962Z,34.65
2017-04-12T06:40:20.873Z,30.85
2017-04-12T06:41:19.791Z,37.30
2017-04-12T06:42:18.738Z,33.83
2017-04-12T06:43:18.467Z,35.40
2017-04-12T06:44:17.448Z,34.48
2017-04-12T06:45:16.389Z,32.23
2017-04-12T06:46:15.331Z,33.85
2017-04-12T06:47:14.261Z,32.73
2017-04-12T06:48:13.946Z,33.65
2017-04-12T06:49:12.917Z,31.18
2017-04-12T06:50:11.851Z,30.53
2017-04-12T06:51:11.003Z,33.05
2017-04-12T06:52:10.685Z,29.98
2017-04-12T06:53:09.658Z,32.23
2017-04-12T06:54:08.568Z,31.73
2017-04-12T06:55:07.519Z,32.93
2017-04-12T06:56:06.502Z,35.47
2017-04-12T06:57:05.466Z,34.52
2017-04-12T06:58:04.573Z,36.28
2017-04-12T06:59:03.844Z,33.12
2017-04-12T07:00:03.004Z,29.40
2017-04-12T07:01:02.110Z,31.83
2017-04-12T07:02:01.324Z,29.62
2017-04-12T07:03:01.062Z,29.57
2017-04-12T07:04:00.368Z,32.10
2017-04-12T07:04:59.437Z,31.88
2017-04-12T07:05:58.464Z,29.30
2017-04-12T07:06:57.548Z,29.15
2017-04-12T07:07:56.654Z,30.02
2017-04-12T07:08:55.655Z,28.80
2017-04-12T07:09:54.615Z,33.38
2017-04-12T07:10:53.601Z,31.58
2017-04-12T07:11:52.576Z,31.10
2017-04-12T07:12:51.531Z,34.15
2017-04-12T07:13:50.446Z,33.22
2017-04-12T07:14:49.392Z,30.73
2017-04-12T07:15:48.365Z,36.83
2017-04-12T07:16:47.459Z,33.57
2017-04-12T07:17:46.398Z,29.05
2017-04-12T07:18:45.351Z,31.00
2017-04-12T07:19:44.331Z,28.05
2017-04-12T07:20:43.304Z,28.50
2017-04-12T07:21:42.242Z,33.23
2017-04-12T07:22:41.177Z,32.63
2017-04-12T07:23:40.172Z,29.82
2017-04-12T07:24:39.094Z,31.83
2017-04-12T07:25:38.028Z,31.72
2017-04-12T07:26:37.051Z,33.35
2017-04-12T07:27:36.052Z,31.47
2017-04-12T07:28:35.028Z,28.73
2017-04-12T07:29:34.057Z,34.75
2017-04-12T07:30:33.020Z,32.78
2017-04-12T07:31:32.203Z,30.70
2017-04-12T07:32:31.127Z,28.27
2017-04-12T07:33:30.088Z,30.32
2017-04-12T07:34:28.986Z,30.70
2017-04-12T07:35:27.957Z,29.40
2017-04-12T07:36:26.905Z,29.17
2017-04-12T07:37:25.867Z,33.55
2017-04-12T07:38:24.869Z,33.05
2017-04-12T07:39:23.844Z,27.88
2017-04-12T07:40:22.782Z,29.52
2017-04-12T07:41:22.451Z,32.10
2017-04-12T07:42:21.402Z,28.52
2017-04-12T07:43:20.416Z,30.30
2017-04-12T07:44:19.368Z,29.05
2017-04-12T07:45:18.619Z,27.47
2017-04-12T07:46:18.299Z,28.77
2017-04-12T07:47:17.218Z,28.72
2017-04-12T07:48:16.894Z,30.50
2017-04-12T07:49:15.864Z,30.65
2017-04-12T07:50:14.851Z,30.02
2017-04-12T07:51:13.819Z,29.10
2017-04-12T07:52:12.790Z,28.98
2017-04-12T07:53:11.727Z,28.62
2017-04-12T07:54:10.705Z,28.52
2017-04-12T07:55:09.647Z,28.48
2017-04-12T07:56:08.554Z,27.73
2017-04-12T07:57:08.324Z,28.40
2017-04-12T07:58:07.314Z,30.65
2017-04-12T07:59:06.236Z,31.97
2017-04-12T08:00:05.196Z,30.33
2017-04-12T08:01:04.109Z,28.70
2017-04-12T08:02:03.035Z,27.68
2017-04-12T08:03:01.958Z,28.63
2017-04-12T08:04:00.910Z,30.45
2017-04-12T08:04:59.848Z,27.90
2017-04-12T08:05:58.807Z,28.18
2017-04-12T08:06:57.841Z,28.18
2017-04-12T08:07:56.773Z,27.17
2017-04-12T08:08:56.422Z,28.63
2017-04-12T08:09:55.346Z,28.98
2017-04-12T08:10:54.271Z,27.73
2017-04-12T08:11:53.608Z,31.75
2017-04-12T08:12:52.531Z,27.57
2017-04-12T08:13:51.443Z,29.75
2017-04-12T08:14:50.419Z,25.20
2017-04-12T08:15:49.324Z,25.58
2017-04-12T08:16:48.382Z,26.55
2017-04-12T08:17:47.391Z,28.22
2017-04-12T08:18:46.328Z,27.88
2017-04-12T08:19:45.265Z,27.45
2017-04-12T08:20:44.338Z,26.80
2017-04-12T08:21:44.524Z,26.83
2017-04-12T08:22:43.476Z,24.77
2017-04-12T08:23:42.411Z,25.82
2017-04-12T08:24:41.348Z,27.10
2017-04-12T08:25:40.291Z,27.98
2017-04-12T08:26:39.984Z,26.45
2017-04-12T08:27:38.987Z,28.62
2017-04-12T08:28:37.919Z,25.02
2017-04-12T08:29:36.844Z,29.88
2017-04-12T08:30:35.777Z,29.42
2017-04-12T08:31:34.709Z,25.52
2017-04-12T08:32:34.064Z,24.22
2017-04-12T08:33:33.000Z,29.28
2017-04-12T08:34:32.232Z,26.62
2017-04-12T08:35:31.183Z,26.90
2017-04-12T08:36:30.124Z,25.15
2017-04-12T08:37:29.825Z,34.50
2017-04-12T08:38:29.585Z,31.08
2017-04-12T08:39:28.588Z,28.85
2017-04-12T08:40:27.580Z,25.42
2017-04-12T08:41:27.163Z,24.60
2017-04-12T08:42:26.799Z,25.80
2017-04-12T08:43:25.744Z,26.77
2017-04-12T08:44:24.706Z,25.60
2017-04-12T08:45:23.661Z,30.22
2017-04-12T08:46:22.597Z,27.30
2017-04-12T08:47:21.861Z,28.08
2017-04-12T08:48:20.847Z,23.68
2017-04-12T08:49:19.771Z,25.20
2017-04-12T08:50:18.745Z,28.35
2017-04-12T08:51:17.657Z,23.20
2017-04-12T08:52:16.619Z,22.55
2017-04-12T08:53:15.532Z,25.03
2017-04-12T08:54:14.462Z,23.47
2017-04-12T08:55:13.383Z,25.63
2017-04-12T08:56:12.328Z,23.63
2017-04-12T08:57:12.001Z,26.60
2017-04-12T08:58:10.945Z,22.58
2017-04-12T08:59:09.883Z,24.33
2017-04-12T09:00:09.603Z,24.20
2017-04-12T09:01:08.637Z,22.92
2017-04-12T09:02:07.608Z,22.88
2017-04-12T09:03:06.545Z,23.68
2017-04-12T09:04:05.467Z,24.00
2017-04-12T09:05:04.435Z,27.63
2017-04-12T09:06:03.367Z,23.98
2017-04-12T09:07:02.320Z,20.90
2017-04-12T09:08:01.260Z,22.52
2017-04-12T09:09:00.167Z,22.13
2017-04-12T09:09:59.116Z,23.68
2017-04-12T09:10:58.063Z,25.18
2017-04-12T09:11:57.243Z,25.00
2017-04-12T09:12:56.164Z,24.87
2017-04-12T09:13:55.104Z,23.68
2017-04-12T09:14:53.992Z,23.40
2017-04-12T09:15:52.944Z,22.42
2017-04-12T09:16:52.036Z,23.73
2017-04-12T09:17:50.958Z,23.83
2017-04-12T09:18:49.873Z,25.25
2017-04-12T09:19:48.841Z,25.30
2017-04-12T09:20:47.775Z,22.02
2017-04-12T09:21:46.764Z,22.70
2017-04-12T09:22:45.749Z,22.50
2017-04-12T09:23:44.718Z,23.33
2017-04-12T09:24:43.665Z,25.30
2017-04-12T09:25:42.754Z,23.32
2017-04-12T09:26:41.824Z,22.20
2017-04-12T09:27:40.763Z,25.80
2017-04-12T09:28:39.701Z,22.53
2017-04-12T09:29:38.665Z,26.00
2017-04-12T09:30:37.632Z,25.90
2017-04-12T09:31:37.381Z,23.28
2017-04-12T09:32:36.354Z,25.52
2017-04-12T09:33:35.320Z,23.47
2017-04-12T09:34:34.355Z,22.32
2017-04-12T09:35:33.268Z,22.52
2017-04-12T09:36:32.171Z,28.38
2017-04-12T09:37:31.130Z,23.60
2017-04-12T09:38:30.097Z,21.40
2017-04-12T09:39:29.067Z,22.63
2017-04-12T09:40:28.071Z,20.15
2017-04-12T09:41:27.239Z,22.40
2017-04-12T09:42:26.162Z,21.20
2017-04-12T09:43:25.393Z,23.23
2017-04-12T09:44:24.332Z,22.12
2017-04-12T09:45:23.242Z,19.60
2017-04-12T09:46:22.204Z,24.12
2017-04-12T09:47:21.147Z,22.63
2017-04-12T09:48:20.098Z,22.52
2017-04-12T09:49:19.055Z,19.73
2017-04-12T09:50:18.096Z,21.60
2017-04-12T09:51:17.101Z,21.87
2017-04-12T09:52:17.127Z,22.68
2017-04-12T09:53:16.095Z,23.88
2017-04-12T09:54:15.010Z,21.02
2017-04-12T09:55:13.946Z,21.35
2017-04-12T09:56:12.991Z,22.40
2017-04-12T09:57:11.928Z,24.40
2017-04-12T09:58:10.864Z,24.77
2017-04-12T09:59:09.913Z,22.22
2017-04-12T10:00:08.859Z,20.52
2017-04-12T10:01:07.840Z,21.73
2017-04-12T10:02:06.780Z,21.77
2017-04-12T10:03:05.715Z,25.85
2017-04-12T10:04:04.677Z,21.02
2017-04-12T10:05:04.349Z,20.98
2017-04-12T10:06:03.288Z,22.78
2017-04-12T10:07:02.271Z,21.48
2017-04-12T10:08:01.260Z,19.95
2017-04-12T10:09:00.242Z,23.62
2017-04-12T10:09:59.184Z,22.58
2017-04-12T10:10:58.115Z,23.05
2017-04-12T10:11:57.047Z,21.37
2017-04-12T10:12:56.034Z,21.73
2017-04-12T10:13:55.739Z,21.58
2017-04-12T10:14:54.711Z,20.90
2017-04-12T10:15:54.723Z,19.80
2017-04-12T10:16:54.473Z,20.95
2017-04-12T10:17:53.439Z,20.95
2017-04-12T10:18:52.415Z,20.67
2017-04-12T10:19:51.348Z,19.18
2017-04-12T10:20:50.308Z,18.77
2017-04-12T10:21:49.304Z,22.75
2017-04-12T10:22:48.276Z,21.63
2017-04-12T10:23:47.275Z,20.07
2017-04-12T10:24:46.597Z,23.82
2017-04-12T10:25:45.630Z,21.18
2017-04-12T10:26:44.567Z,20.62
2017-04-12T10:27:43.480Z,25.30
2017-04-12T10:28:42.482Z,24.57
2017-04-12T10:29:41.434Z,23.83
2017-04-12T10:30:40.384Z,20.06
2017-04-12T10:31:40.076Z,28.13
2017-04-12T10:32:39.132Z,19.10
2017-04-12T10:33:38.134Z,21.82
2017-04-12T10:34:37.069Z,23.62
2017-04-12T10:35:36.076Z,20.17
2017-04-12T10:36:35.084Z,21.52
2017-04-12T10:37:34.045Z,21.32
2017-04-12T10:38:33.332Z,22.90
2017-04-12T10:39:33.032Z,21.82
2017-04-12T10:40:31.964Z,23.40
2017-04-12T10:41:30.919Z,21.75
2017-04-12T10:42:30.656Z,24.95
2017-04-12T10:43:29.577Z,27.28
2017-04-12T10:44:28.599Z,26.30
2017-04-12T10:45:27.574Z,25.07
2017-04-12T10:46:26.495Z,23.63
2017-04-12T10:47:25.415Z,27.10
2017-04-12T10:48:24.360Z,23.20
2017-04-12T10:49:23.473Z,21.87
2017-04-12T10:50:22.391Z,23.95
2017-04-12T10:51:21.343Z,26.45
2017-04-12T10:52:20.360Z,25.55
2017-04-12T10:53:19.342Z,22.63
2017-04-12T10:54:18.325Z,23.08
2017-04-12T10:55:17.272Z,22.73
2017-04-12T10:56:16.209Z,23.05
2017-04-12T10:57:15.221Z,22.17
2017-04-12T10:58:14.153Z,22.17
2017-04-12T10:59:13.123Z,27.17
2017-04-12T11:00:12.826Z,22.02
2017-04-12T11:01:12.482Z,23.38
2017-04-12T11:02:11.383Z,23.70
2017-04-12T11:03:10.351Z,26.38
2017-04-12T11:04:09.279Z,23.58
2017-04-12T11:05:08.310Z,24.42
2017-04-12T11:06:07.314Z,23.62
2017-04-12T11:07:06.254Z,22.28
2017-04-12T11:08:05.357Z,23.05
2017-04-12T11:09:06.264Z,23.87
2017-04-12T11:10:05.224Z,25.78
2017-04-12T11:11:04.250Z,24.50
2017-04-12T11:12:03.316Z,21.62
2017-04-12T11:13:02.264Z,21.73
2017-04-12T11:14:01.328Z,24.92
2017-04-12T11:15:00.305Z,26.10
2017-04-12T11:15:59.370Z,23.50
2017-04-12T11:16:58.308Z,25.42
2017-04-12T11:17:57.995Z,24.35
2017-04-12T11:18:56.962Z,23.83
2017-04-12T11:19:56.666Z,23.82
2017-04-12T11:20:55.605Z,23.67
2017-04-12T11:21:54.554Z,24.82
2017-04-12T11:22:53.511Z,24.03
2017-04-12T11:23:52.671Z,24.40
2017-04-12T11:24:51.662Z,23.13
2017-04-12T11:25:50.647Z,26.17
2017-04-12T11:26:49.598Z,25.18
2017-04-12T11:27:48.549Z,25.83
2017-04-12T11:28:47.508Z,22.80
2017-04-12T11:29:47.188Z,25.07
2017-04-12T11:30:46.152Z,25.75
2017-04-12T11:31:45.129Z,29.33
2017-04-12T11:32:44.052Z,24.87
2017-04-12T11:33:43.100Z,25.42
2017-04-12T11:34:42.044Z,24.55
2017-04-12T11:35:40.996Z,24.35
2017-04-12T11:36:39.924Z,24.28
2017-04-12T11:37:38.865Z,25.08
2017-04-12T11:38:38.552Z,23.62
2017-04-12T11:39:37.474Z,23.72
2017-04-12T11:40:36.399Z,24.27
2017-04-12T11:41:35.354Z,26.00
2017-04-12T11:42:34.272Z,27.08
2017-04-12T11:43:33.192Z,27.55
2017-04-12T11:44:32.144Z,26.25
2017-04-12T11:45:31.820Z,25.67
2017-04-12T11:46:30.755Z,24.25
2017-04-12T11:47:29.724Z,22.70
2017-04-12T11:48:28.743Z,27.03
2017-04-12T11:49:27.656Z,26.02
2017-04-12T11:50:26.571Z,25.62
2017-04-12T11:51:25.509Z,25.55
2017-04-12T11:52:24.448Z,25.57
2017-04-12T11:53:23.464Z,24.13
2017-04-12T11:54:22.365Z,26.07
2017-04-12T11:55:21.311Z,26.40
2017-04-12T11:56:20.308Z,26.90
2017-04-12T11:57:19.303Z,31.05
2017-04-12T11:58:18.240Z,27.35
2017-04-12T11:59:17.192Z,25.57
2017-04-12T12:00:16.889Z,25.70
2017-04-12T12:01:16.582Z,26.70
2017-04-12T12:02:15.876Z,25.80
2017-04-12T12:03:14.796Z,23.87
2017-04-12T12:04:13.732Z,24.98
2017-04-12T12:05:12.696Z,23.13
2017-04-12T12:06:11.646Z,26.02
2017-04-12T12:07:10.595Z,25.40
2017-04-12T12:08:10.276Z,25.05
2017-04-12T12:09:09.236Z,25.50
2017-04-12T12:10:08.911Z,26.48
2017-04-12T12:11:07.976Z,26.47
2017-04-12T12:12:06.981Z,26.30
2017-04-12T12:13:06.088Z,27.17
2017-04-12T12:14:05.798Z,27.00
2017-04-12T12:15:04.765Z,26.47
2017-04-12T12:16:03.699Z,27.30
2017-04-12T12:17:02.719Z,27.65
2017-04-12T12:18:01.669Z,27.98
2017-04-12T12:19:00.600Z,25.33
2017-04-12T12:19:59.537Z,27.28
2017-04-12T12:20:58.451Z,23.80
2017-04-12T12:21:57.391Z,23.48
2017-04-12T12:22:56.348Z,23.03
2017-04-12T12:23:55.388Z,26.22
2017-04-12T12:24:54.312Z,23.00
2017-04-12T12:25:53.267Z,23.60
2017-04-12T12:26:52.259Z,26.50
2017-04-12T12:27:51.248Z,23.77
2017-04-12T12:28:50.185Z,23.73
2017-04-12T12:29:49.145Z,23.77
2017-04-12T12:30:48.198Z,22.35
2017-04-12T12:31:47.123Z,20.85
2017-04-12T12:32:46.038Z,21.62
2017-04-12T12:33:44.958Z,22.82
2017-04-12T12:34:44.067Z,23.30
2017-04-12T12:35:42.963Z,21.00
2017-04-12T12:36:41.869Z,25.55
2017-04-12T12:37:40.854Z,22.65
2017-04-12T12:38:39.842Z,22.35
2017-04-12T12:39:38.760Z,22.52
2017-04-12T12:40:37.761Z,20.37